Livonia, Michigan
Current Conditions -  °F | °C
As of 11:35 PM on Thursday 18 Dec 2014 (Local Time) from KDTW Reporting Station
Overcast Overcast  
Wind Chill: 23°   Ceiling: 1700
Heat Index: 30°   Visibility: 10mi
Dew Point: 27°   Wind: 7mph
Humidity: 86%   Direction: 340°NNW
Pressure: 30.19"   Gusts: NA
Location:  42.4°N, 83.37°W
Report Text: KDTW 190435Z 34006KT 10SM FEW006 BKN017 OVC025 M01/M03 A3019 RMK AO2 FZDZE35 P0000
Loading
Personal Weather Stations






























Interactive Weather Map New forecast layout! Learn more

10-Day Weather Forecast

Advertisements
Track Severe Weather on mobile